TimeAKDT,TemperatureF,Dew PointF,Humidity,Sea Level PressureIn,VisibilityMPH,Wind Direction,Wind SpeedMPH,Gust SpeedMPH,PrecipitationIn,Events,Conditions,WindDirDegrees,DateUTC
12:16 AM,42.8,39.2,87,30.35,10.0,ENE,4.6,-,N/A,,Clear,70,2012-10-07 08:16:00
12:36 AM,42.8,39.2,87,30.36,10.0,East,3.5,-,N/A,,Clear,80,2012-10-07 08:36:00
12:56 AM,42.8,39.2,87,30.36,10.0,ENE,3.5,-,N/A,,Clear,70,2012-10-07 08:56:00
1:36 AM,41.0,37.4,87,30.35,10.0,ENE,3.5,-,N/A,,Overcast,70,2012-10-07 09:36:00
1:56 AM,41.0,39.2,93,30.35,10.0,East,3.5,-,N/A,,Overcast,80,2012-10-07 09:56:00
2:36 AM,41.0,37.4,87,30.35,10.0,Calm,Calm,-,N/A,,Overcast,0,2012-10-07 10:36:00
2:56 AM,41.0,39.2,93,30.34,1.0,ENE,4.6,-,N/A,,Overcast,70,2012-10-07 10:56:00
3:16 AM,41.0,37.4,87,30.34,7.0,East,3.5,-,N/A,,Overcast,80,2012-10-07 11:16:00
4:16 AM,42.8,39.2,87,30.35,0.2,East,3.5,-,N/A,,Overcast,80,2012-10-07 12:16:00
4:36 AM,41.0,37.4,87,30.34,2.0,Calm,Calm,-,N/A,,Overcast,0,2012-10-07 12:36:00
4:56 AM,41.0,39.2,93,30.33,0.2,Calm,Calm,-,N/A,,Overcast,0,2012-10-07 12:56:00
5:16 AM,39.2,37.4,93,30.33,1.5,Calm,Calm,-,N/A,,Overcast,0,2012-10-07 13:16:00
5:56 AM,41.0,37.4,87,30.33,2.5,East,3.5,-,N/A,,Scattered Clouds,80,2012-10-07 13:56:00
6:16 AM,39.2,37.4,93,30.33,10.0,Calm,Calm,-,N/A,,Clear,0,2012-10-07 14:16:00
6:36 AM,42.8,39.2,87,30.33,5.0,Calm,Calm,-,N/A,,Scattered Clouds,0,2012-10-07 14:36:00
6:56 AM,39.2,37.4,93,30.33,1.0,Calm,Calm,-,N/A,,Overcast,0,2012-10-07 14:56:00
7:36 AM,41.0,39.2,93,30.34,10.0,Calm,Calm,-,N/A,,Overcast,0,2012-10-07 15:36:00
8:36 AM,42.8,41.0,93,30.33,0.5,Calm,Calm,-,N/A,,Mostly Cloudy,0,2012-10-07 16:36:00
8:56 AM,44.6,42.8,93,30.33,10.0,Calm,Calm,-,N/A,,Mostly Cloudy,0,2012-10-07 16:56:00
9:36 AM,46.4,44.6,93,30.32,7.0,Calm,Calm,-,N/A,,Partly Cloudy,0,2012-10-07 17:36:00
9:56 AM,46.4,44.6,93,30.33,10.0,South,3.5,-,N/A,,Scattered Clouds,180,2012-10-07 17:56:00
10:16 AM,48.2,44.6,87,30.32,10.0,North,8.1,-,N/A,,Partly Cloudy,10,2012-10-07 18:16:00
10:36 AM,48.2,44.6,87,30.33,10.0,North,8.1,-,N/A,,Mostly Cloudy,350,2012-10-07 18:36:00
10:56 AM,48.2,44.6,87,30.32,10.0,North,3.5,-,N/A,,Overcast,350,2012-10-07 18:56:00
11:16 AM,50.0,44.6,82,30.33,10.0,NNW,4.6,-,N/A,,Overcast,340,2012-10-07 19:16:00
11:36 AM,51.8,44.6,76,30.32,10.0,West,3.5,-,N/A,,Overcast,270,2012-10-07 19:36:00
11:56 AM,51.8,44.6,76,30.33,10.0,SSW,5.8,-,N/A,,Mostly Cloudy,210,2012-10-07 19:56:00
1:16 PM,53.6,44.6,72,30.30,10.0,SSW,4.6,-,N/A,,Clear,200,2012-10-07 21:16:00
1:36 PM,53.6,44.6,72,30.30,10.0,Calm,Calm,-,N/A,,Clear,0,2012-10-07 21:36:00
2:36 PM,57.2,44.6,63,30.28,10.0,NNW,6.9,-,N/A,,Clear,330,2012-10-07 22:36:00
2:56 PM,57.2,44.6,63,30.27,10.0,East,5.8,-,N/A,,Clear,80,2012-10-07 22:56:00
3:36 PM,55.4,44.6,67,30.27,10.0,Calm,Calm,-,N/A,,Clear,0,2012-10-07 23:36:00
3:56 PM,57.2,44.6,63,30.26,10.0,Calm,Calm,-,N/A,,Clear,0,2012-10-07 23:56:00
4:16 PM,55.4,44.6,67,30.26,10.0,ENE,6.9,-,N/A,,Clear,60,2012-10-08 00:16:00
4:36 PM,55.4,44.6,67,30.26,10.0,NE,6.9,-,N/A,,Clear,50,2012-10-08 00:36:00
5:56 PM,51.8,42.8,71,30.24,10.0,Calm,Calm,-,N/A,,Clear,0,2012-10-08 01:56:00
6:36 PM,50.0,42.8,76,30.24,10.0,NNW,4.6,-,N/A,,Clear,340,2012-10-08 02:36:00
7:16 PM,46.4,41.0,81,30.23,10.0,Calm,Calm,-,N/A,,Clear,0,2012-10-08 03:16:00
7:36 PM,44.6,39.2,81,30.23,10.0,NE,4.6,-,N/A,,Clear,50,2012-10-08 03:36:00
7:56 PM,44.6,39.2,81,30.24,10.0,Calm,Calm,-,N/A,,Clear,0,2012-10-08 03:56:00
8:16 PM,46.4,42.8,87,30.24,10.0,NE,3.5,-,N/A,,Clear,40,2012-10-08 04:16:00
8:36 PM,46.4,42.8,87,30.23,10.0,NNE,4.6,-,N/A,,Clear,30,2012-10-08 04:36:00
8:56 PM,46.4,42.8,87,30.23,10.0,Calm,Calm,-,N/A,,Clear,0,2012-10-08 04:56:00
9:16 PM,44.6,41.0,87,30.23,10.0,ENE,5.8,-,N/A,,Clear,60,2012-10-08 05:16:00
9:56 PM,46.4,42.8,87,30.23,10.0,NE,8.1,-,N/A,,Clear,50,2012-10-08 05:56:00
10:16 PM,46.4,42.8,87,30.22,10.0,ENE,6.9,-,N/A,,Clear,60,2012-10-08 06:16:00
10:36 PM,46.4,42.8,87,30.22,10.0,Calm,Calm,-,N/A,,Clear,0,2012-10-08 06:36:00
10:56 PM,44.6,41.0,87,30.22,10.0,Calm,Calm,-,N/A,,Clear,0,2012-10-08 06:56:00
11:16 PM,42.8,37.4,81,30.22,10.0,ENE,4.6,-,N/A,,Clear,70,2012-10-08 07:16:00
11:56 PM,46.4,41.0,81,30.22,10.0,NE,3.5,-,N/A,,Clear,40,2012-10-08 07:56:00